sensor_id;sensor_type;location;lat;lon;timestamp;pressure;altitude;pressure_sealevel;temperature;humidity
56632;BME280;42503;39.928;-75.152;2022-09-09T00:04:25;101103.91;;;26.98;41.15
56632;BME280;42503;39.928;-75.152;2022-09-09T00:06:35;101104.91;;;27.02;41.21
56632;BME280;42503;39.928;-75.152;2022-09-09T00:10:58;101102.94;;;27.02;41.41
56632;BME280;42503;39.928;-75.152;2022-09-09T00:15:40;101108.25;;;27.04;41.09
56632;BME280;42503;39.928;-75.152;2022-09-09T00:18:01;101108.25;;;27.04;41.38
56632;BME280;42503;39.928;-75.152;2022-09-09T00:20:19;101113.88;;;27.04;41.19
56632;BME280;42503;39.928;-75.152;2022-09-09T00:22:25;101088.13;;;26.88;41.25
56632;BME280;42503;39.928;-75.152;2022-09-09T00:24:47;101117.50;;;27.04;41.41
56632;BME280;42503;39.928;-75.152;2022-09-09T00:26:55;101119.50;;;27.04;41.22
56632;BME280;42503;39.928;-75.152;2022-09-09T00:31:23;101129.03;;;27.03;41.49
56632;BME280;42503;39.928;-75.152;2022-09-09T00:33:26;101129.69;;;27.00;41.17
56632;BME280;42503;39.928;-75.152;2022-09-09T00:35:34;101140.81;;;27.05;41.62
56632;BME280;42503;39.928;-75.152;2022-09-09T00:37:37;101138.00;;;27.05;41.43
56632;BME280;42503;39.928;-75.152;2022-09-09T00:39:46;101141.97;;;27.04;41.35
56632;BME280;42503;39.928;-75.152;2022-09-09T00:42:14;101139.28;;;26.99;41.68
56632;BME280;42503;39.928;-75.152;2022-09-09T00:44:36;101147.56;;;27.04;41.50
56632;BME280;42503;39.928;-75.152;2022-09-09T00:48:53;101149.22;;;27.05;41.62
56632;BME280;42503;39.928;-75.152;2022-09-09T00:51:00;101150.88;;;27.06;41.60
56632;BME280;42503;39.928;-75.152;2022-09-09T00:57:53;101168.25;;;27.08;41.90
56632;BME280;42503;39.928;-75.152;2022-09-09T01:00:17;101158.81;;;27.04;41.71
56632;BME280;42503;39.928;-75.152;2022-09-09T01:05:15;101164.94;;;27.06;41.60
56632;BME280;42503;39.928;-75.152;2022-09-09T01:07:21;101158.72;;;27.09;41.67
56632;BME280;42503;39.928;-75.152;2022-09-09T01:09:31;101164.34;;;27.09;41.88
56632;BME280;42503;39.928;-75.152;2022-09-09T01:14:03;101169.38;;;27.07;41.87
56632;BME280;42503;39.928;-75.152;2022-09-09T01:16:11;101170.03;;;27.04;41.72
56632;BME280;42503;39.928;-75.152;2022-09-09T01:18:19;101172.19;;;27.07;42.10
56632;BME280;42503;39.928;-75.152;2022-09-09T01:20:43;101186.91;;;27.04;41.85
56632;BME280;42503;39.928;-75.152;2022-09-09T01:27:49;101136.44;;;26.76;41.39
56632;BME280;42503;39.928;-75.152;2022-09-09T01:29:51;101198.75;;;27.15;41.98
56632;BME280;42503;39.928;-75.152;2022-09-09T01:31:55;101189.19;;;27.02;42.09
56632;BME280;42503;39.928;-75.152;2022-09-09T01:33:57;101207.28;;;27.09;41.86
56632;BME280;42503;39.928;-75.152;2022-09-09T01:36:15;101202.06;;;27.03;41.94
56632;BME280;42503;39.928;-75.152;2022-09-09T01:38:19;101224.97;;;27.10;41.98
56632;BME280;42503;39.928;-75.152;2022-09-09T01:40:25;101218.53;;;27.09;42.12
56632;BME280;42503;39.928;-75.152;2022-09-09T01:42:26;101223.31;;;27.09;42.06
56632;BME280;42503;39.928;-75.152;2022-09-09T01:44:30;101219.34;;;27.10;42.15
56632;BME280;42503;39.928;-75.152;2022-09-09T01:46:35;101218.53;;;27.09;42.24
56632;BME280;42503;39.928;-75.152;2022-09-09T01:48:39;101219.34;;;27.10;42.16
56632;BME280;42503;39.928;-75.152;2022-09-09T01:50:42;101203.22;;;27.02;42.19
56632;BME280;42503;39.928;-75.152;2022-09-09T01:52:45;101224.16;;;27.09;42.36
56632;BME280;42503;39.928;-75.152;2022-09-09T01:54:51;101216.03;;;27.08;42.15
56632;BME280;42503;39.928;-75.152;2022-09-09T01:57:15;101212.69;;;27.06;42.25
56632;BME280;42503;39.928;-75.152;2022-09-09T02:03:52;101228.63;;;27.10;42.18
56632;BME280;42503;39.928;-75.152;2022-09-09T02:08:20;101230.59;;;27.10;42.54
56632;BME280;42503;39.928;-75.152;2022-09-09T02:12:44;101236.22;;;27.10;42.59
56632;BME280;42503;39.928;-75.152;2022-09-09T02:14:52;101228.38;;;27.07;42.46
56632;BME280;42503;39.928;-75.152;2022-09-09T02:17:10;101227.25;;;27.08;42.37
56632;BME280;42503;39.928;-75.152;2022-09-09T02:19:29;101224.97;;;27.10;42.50
56632;BME280;42503;39.928;-75.152;2022-09-09T02:21:35;101233.91;;;27.12;43.03
56632;BME280;42503;39.928;-75.152;2022-09-09T02:23:39;101240.19;;;27.09;42.90
56632;BME280;42503;39.928;-75.152;2022-09-09T02:25:42;101244.31;;;27.11;43.08
56632;BME280;42503;39.928;-75.152;2022-09-09T02:27:47;101216.75;;;27.00;42.65
56632;BME280;42503;39.928;-75.152;2022-09-09T02:29:54;101231.84;;;27.04;42.91
56632;BME280;42503;39.928;-75.152;2022-09-09T02:32:04;101238.69;;;27.11;43.16
56632;BME280;42503;39.928;-75.152;2022-09-09T02:34:07;101239.53;;;27.12;42.98
56632;BME280;42503;39.928;-75.152;2022-09-09T02:36:14;101246.81;;;27.13;43.08
56632;BME280;42503;39.928;-75.152;2022-09-09T02:38:17;101248.81;;;27.13;42.83
56632;BME280;42503;39.928;-75.152;2022-09-09T02:40:24;101243.47;;;27.11;42.95
56632;BME280;42503;39.928;-75.152;2022-09-09T02:42:25;101245.13;;;27.12;43.07
56632;BME280;42503;39.928;-75.152;2022-09-09T02:44:29;101239.53;;;27.12;42.94
56632;BME280;42503;39.928;-75.152;2022-09-09T02:49:11;101241.81;;;27.10;43.20
56632;BME280;42503;39.928;-75.152;2022-09-09T02:56:20;101252.44;;;27.13;44.35
56632;BME280;42503;39.928;-75.152;2022-09-09T02:58:25;101252.44;;;27.13;44.00
56632;BME280;42503;39.928;-75.152;2022-09-09T03:00:30;101252.75;;;27.11;44.68
56632;BME280;42503;39.928;-75.152;2022-09-09T03:02:34;101249.09;;;27.11;44.26
56632;BME280;42503;39.928;-75.152;2022-09-09T03:04:35;101240.38;;;26.99;44.55
56632;BME280;42503;39.928;-75.152;2022-09-09T03:06:37;101243.06;;;27.04;44.51
56632;BME280;42503;39.928;-75.152;2022-09-09T03:08:38;101251.91;;;27.11;44.46
56632;BME280;42503;39.928;-75.152;2022-09-09T03:10:39;101197.38;;;26.76;44.70
56632;BME280;42503;39.928;-75.152;2022-09-09T03:12:41;101254.72;;;27.11;44.97
56632;BME280;42503;39.928;-75.152;2022-09-09T03:14:42;101259.50;;;27.10;44.21
56632;BME280;42503;39.928;-75.152;2022-09-09T03:16:51;101253.28;;;27.14;44.13
56632;BME280;42503;39.928;-75.152;2022-09-09T03:18:53;101250.13;;;27.15;43.81
56632;BME280;42503;39.928;-75.152;2022-09-09T03:21:00;101256.59;;;27.16;43.87
56632;BME280;42503;39.928;-75.152;2022-09-09T03:23:01;101254.59;;;27.16;43.81
56632;BME280;42503;39.928;-75.152;2022-09-09T03:25:03;101259.09;;;27.17;43.92
56632;BME280;42503;39.928;-75.152;2022-09-09T03:27:05;101264.72;;;27.17;43.53
56632;BME280;42503;39.928;-75.152;2022-09-09T03:29:10;101263.03;;;27.16;43.87
56632;BME280;42503;39.928;-75.152;2022-09-09T03:31:14;101251.78;;;27.16;43.55
56632;BME280;42503;39.928;-75.152;2022-09-09T03:33:15;101256.28;;;27.17;43.88
56632;BME280;42503;39.928;-75.152;2022-09-09T03:35:17;101255.44;;;27.17;43.84
56632;BME280;42503;39.928;-75.152;2022-09-09T03:37:19;101261.69;;;27.14;43.49
56632;BME280;42503;39.928;-75.152;2022-09-09T03:39:20;101263.84;;;27.17;43.59
56632;BME280;42503;39.928;-75.152;2022-09-09T03:41:22;101232.78;;;26.99;43.71
56632;BME280;42503;39.928;-75.152;2022-09-09T03:43:25;101263.03;;;27.16;43.73
56632;BME280;42503;39.928;-75.152;2022-09-09T03:45:27;101269.47;;;27.17;43.66
56632;BME280;42503;39.928;-75.152;2022-09-09T03:47:28;101270.34;;;27.17;43.80
56632;BME280;42503;39.928;-75.152;2022-09-09T03:49:36;101274.25;;;27.16;43.62
56632;BME280;42503;39.928;-75.152;2022-09-09T03:51:37;101282.69;;;27.16;43.84
56632;BME280;42503;39.928;-75.152;2022-09-09T03:53:42;101285.50;;;27.16;43.59
56632;BME280;42503;39.928;-75.152;2022-09-09T03:55:45;101287.19;;;27.17;43.47
56632;BME280;42503;39.928;-75.152;2022-09-09T03:57:47;101291.13;;;27.16;43.45
56632;BME280;42503;39.928;-75.152;2022-09-09T03:59:48;101297.56;;;27.17;43.60
56632;BME280;42503;39.928;-75.152;2022-09-09T04:01:49;101294.25;;;27.15;43.61
56632;BME280;42503;39.928;-75.152;2022-09-09T04:03:53;101298.44;;;27.17;43.64
56632;BME280;42503;39.928;-75.152;2022-09-09T04:06:00;101298.44;;;27.17;43.59
56632;BME280;42503;39.928;-75.152;2022-09-09T04:08:02;101298.44;;;27.17;43.42
56632;BME280;42503;39.928;-75.152;2022-09-09T04:10:04;101294.03;;;27.11;43.85
56632;BME280;42503;39.928;-75.152;2022-09-09T04:12:06;101304.03;;;27.17;43.49
56632;BME280;42503;39.928;-75.152;2022-09-09T04:14:07;101306.84;;;27.17;43.40
56632;BME280;42503;39.928;-75.152;2022-09-09T04:16:11;101303.19;;;27.17;43.64
56632;BME280;42503;39.928;-75.152;2022-09-09T04:18:14;101310.50;;;27.18;43.38
56632;BME280;42503;39.928;-75.152;2022-09-09T04:20:15;101311.63;;;27.17;43.83
56632;BME280;42503;39.928;-75.152;2022-09-09T04:22:19;101283.00;;;27.01;43.73
56632;BME280;42503;39.928;-75.152;2022-09-09T04:24:22;101307.16;;;27.16;43.47
56632;BME280;42503;39.928;-75.152;2022-09-09T04:26:28;101308.81;;;27.17;43.34
56632;BME280;42503;39.928;-75.152;2022-09-09T04:28:32;101318.09;;;27.17;43.27
56632;BME280;42503;39.928;-75.152;2022-09-09T04:30:36;101289.25;;;26.98;43.47
56632;BME280;42503;39.928;-75.152;2022-09-09T04:32:40;101326.53;;;27.17;43.66
56632;BME280;42503;39.928;-75.152;2022-09-09T04:34:41;101313.59;;;27.16;43.48
56632;BME280;42503;39.928;-75.152;2022-09-09T04:36:43;101326.81;;;27.16;43.63
56632;BME280;42503;39.928;-75.152;2022-09-09T04:38:45;101319.53;;;27.15;43.32
56632;BME280;42503;39.928;-75.152;2022-09-09T04:40:47;101322.84;;;27.17;43.74
56632;BME280;42503;39.928;-75.152;2022-09-09T04:42:51;101318.72;;;27.14;43.55
56632;BME280;42503;39.928;-75.152;2022-09-09T04:44:55;101323.19;;;27.15;43.36
56632;BME280;42503;39.928;-75.152;2022-09-09T04:46:56;101332.13;;;27.17;43.85
56632;BME280;42503;39.928;-75.152;2022-09-09T04:49:01;101337.22;;;27.15;43.77
56632;BME280;42503;39.928;-75.152;2022-09-09T04:51:06;101338.59;;;27.18;43.46
56632;BME280;42503;39.928;-75.152;2022-09-09T04:53:14;101335.78;;;27.18;43.88
56632;BME280;42503;39.928;-75.152;2022-09-09T04:55:15;101333.78;;;27.18;43.93
56632;BME280;42503;39.928;-75.152;2022-09-09T04:57:19;101345.03;;;27.18;43.90
56632;BME280;42503;39.928;-75.152;2022-09-09T04:59:21;101356.28;;;27.18;43.97
56632;BME280;42503;39.928;-75.152;2022-09-09T05:01:23;101356.28;;;27.18;43.53
56632;BME280;42503;39.928;-75.152;2022-09-09T05:03:28;101365.84;;;27.17;43.84
56632;BME280;42503;39.928;-75.152;2022-09-09T05:05:33;101356.28;;;27.18;43.50
56632;BME280;42503;39.928;-75.152;2022-09-09T05:07:37;101350.66;;;27.18;43.75
56632;BME280;42503;39.928;-75.152;2022-09-09T05:09:39;101361.06;;;27.18;43.81
56632;BME280;42503;39.928;-75.152;2022-09-09T05:11:40;101350.66;;;27.18;43.95
56632;BME280;42503;39.928;-75.152;2022-09-09T05:13:43;101350.66;;;27.18;43.89
56632;BME280;42503;39.928;-75.152;2022-09-09T05:15:54;101349.00;;;27.17;43.63
56632;BME280;42503;39.928;-75.152;2022-09-09T05:17:59;101347.00;;;27.18;43.61
56632;BME280;42503;39.928;-75.152;2022-09-09T05:20:01;101356.28;;;27.18;43.50
56632;BME280;42503;39.928;-75.152;2022-09-09T05:22:04;101346.81;;;27.14;43.53
56632;BME280;42503;39.928;-75.152;2022-09-09T05:24:05;101356.28;;;27.18;43.59
56632;BME280;42503;39.928;-75.152;2022-09-09T05:26:11;101352.94;;;27.16;43.63
56632;BME280;42503;39.928;-75.152;2022-09-09T05:28:13;101361.88;;;27.18;43.88
56632;BME280;42503;39.928;-75.152;2022-09-09T05:30:18;101355.44;;;27.18;43.51
56632;BME280;42503;39.928;-75.152;2022-09-09T05:32:20;101354.63;;;27.17;43.97
56632;BME280;42503;39.928;-75.152;2022-09-09T05:34:21;101352.53;;;27.09;43.53
56632;BME280;42503;39.928;-75.152;2022-09-09T05:36:23;101361.88;;;27.18;43.65
56632;BME280;42503;39.928;-75.152;2022-09-09T05:38:24;101367.50;;;27.18;43.75
56632;BME280;42503;39.928;-75.152;2022-09-09T05:40:26;101356.88;;;27.15;43.86
56632;BME280;42503;39.928;-75.152;2022-09-09T05:42:31;101360.22;;;27.17;43.61
56632;BME280;42503;39.928;-75.152;2022-09-09T05:44:33;101357.72;;;27.16;43.69
56632;BME280;42503;39.928;-75.152;2022-09-09T05:46:34;101367.50;;;27.18;43.81
56632;BME280;42503;39.928;-75.152;2022-09-09T05:48:40;101357.44;;;27.17;43.90
56632;BME280;42503;39.928;-75.152;2022-09-09T05:50:52;101325.75;;;26.98;43.88
56632;BME280;42503;39.928;-75.152;2022-09-09T05:52:54;101328.44;;;27.03;43.86
56632;BME280;42503;39.928;-75.152;2022-09-09T05:54:55;101354.63;;;27.17;43.63
56632;BME280;42503;39.928;-75.152;2022-09-09T05:56:57;101354.63;;;27.17;43.52
56632;BME280;42503;39.928;-75.152;2022-09-09T05:59:00;101353.75;;;27.17;43.44
56632;BME280;42503;39.928;-75.152;2022-09-09T06:01:12;101330.44;;;27.02;43.76
56632;BME280;42503;39.928;-75.152;2022-09-09T06:03:14;101345.03;;;27.18;43.93
56632;BME280;42503;39.928;-75.152;2022-09-09T06:05:19;101306.75;;;26.95;43.52
56632;BME280;42503;39.928;-75.152;2022-09-09T06:07:21;101339.41;;;27.18;43.53
56632;BME280;42503;39.928;-75.152;2022-09-09T06:09:22;101339.41;;;27.18;43.94
56632;BME280;42503;39.928;-75.152;2022-09-09T06:11:26;101345.03;;;27.18;43.62
56632;BME280;42503;39.928;-75.152;2022-09-09T06:13:27;101337.75;;;27.17;43.89
56632;BME280;42503;39.928;-75.152;2022-09-09T06:15:28;101345.03;;;27.18;43.50
56632;BME280;42503;39.928;-75.152;2022-09-09T06:17:31;101336.06;;;27.16;43.76
56632;BME280;42503;39.928;-75.152;2022-09-09T06:19:32;101336.91;;;27.17;43.46
56632;BME280;42503;39.928;-75.152;2022-09-09T06:21:35;101344.50;;;27.16;43.50
56632;BME280;42503;39.928;-75.152;2022-09-09T06:23:39;101308.41;;;26.96;43.95
56632;BME280;42503;39.928;-75.152;2022-09-09T06:25:43;101333.78;;;27.18;43.58
56632;BME280;42503;39.928;-75.152;2022-09-09T06:27:51;101338.88;;;27.16;43.52
56632;BME280;42503;39.928;-75.152;2022-09-09T06:29:52;101337.75;;;27.17;43.83
56632;BME280;42503;39.928;-75.152;2022-09-09T06:31:53;101337.75;;;27.17;43.81
56632;BME280;42503;39.928;-75.152;2022-09-09T06:33:54;101343.38;;;27.17;43.82
56632;BME280;42503;39.928;-75.152;2022-09-09T06:35:56;101335.56;;;27.14;43.55
56632;BME280;42503;39.928;-75.152;2022-09-09T06:37:57;101340.56;;;27.17;43.47
56632;BME280;42503;39.928;-75.152;2022-09-09T06:39:59;101344.00;;;27.14;43.48
56632;BME280;42503;39.928;-75.152;2022-09-09T06:42:00;101346.19;;;27.17;43.90
56632;BME280;42503;39.928;-75.152;2022-09-09T06:44:02;101343.16;;;27.14;43.50
56632;BME280;42503;39.928;-75.152;2022-09-09T06:46:06;101355.44;;;27.18;43.62
56632;BME280;42503;39.928;-75.152;2022-09-09T06:48:09;101344.50;;;27.16;43.60
56632;BME280;42503;39.928;-75.152;2022-09-09T06:50:10;101352.94;;;27.16;43.67
56632;BME280;42503;39.928;-75.152;2022-09-09T06:52:11;101354.63;;;27.17;43.81
56632;BME280;42503;39.928;-75.152;2022-09-09T06:54:16;101354.63;;;27.17;43.49
56632;BME280;42503;39.928;-75.152;2022-09-09T06:58:18;101358.25;;;27.18;43.68
56632;BME280;42503;39.928;-75.152;2022-09-09T07:00:22;101354.63;;;27.17;43.90
56632;BME280;42503;39.928;-75.152;2022-09-09T07:02:24;101355.44;;;27.18;43.67
56632;BME280;42503;39.928;-75.152;2022-09-09T07:04:26;101346.19;;;27.17;43.54
56632;BME280;42503;39.928;-75.152;2022-09-09T07:06:38;101350.75;;;27.13;43.59
56632;BME280;42503;39.928;-75.152;2022-09-09T07:08:40;101356.28;;;27.18;43.75
56632;BME280;42503;39.928;-75.152;2022-09-09T07:10:44;101344.94;;;27.09;43.74
56632;BME280;42503;39.928;-75.152;2022-09-09T07:12:50;101360.22;;;27.17;43.61
56632;BME280;42503;39.928;-75.152;2022-09-09T07:14:55;101343.78;;;27.10;43.91
56632;BME280;42503;39.928;-75.152;2022-09-09T07:16:56;101356.28;;;27.18;43.87
56632;BME280;42503;39.928;-75.152;2022-09-09T07:18:58;101342.41;;;27.08;43.99
56632;BME280;42503;39.928;-75.152;2022-09-09T07:21:03;101360.03;;;27.14;43.83
56632;BME280;42503;39.928;-75.152;2022-09-09T07:23:07;101336.06;;;27.02;43.98
56632;BME280;42503;39.928;-75.152;2022-09-09T07:25:12;101365.53;;;27.19;43.95
56632;BME280;42503;39.928;-75.152;2022-09-09T07:27:15;101343.53;;;27.07;43.75
56632;BME280;42503;39.928;-75.152;2022-09-09T07:29:16;101355.72;;;27.16;43.76
56632;BME280;42503;39.928;-75.152;2022-09-09T07:31:19;101354.63;;;27.17;43.90
56632;BME280;42503;39.928;-75.152;2022-09-09T07:33:22;101359.38;;;27.17;44.06
56632;BME280;42503;39.928;-75.152;2022-09-09T07:35:23;101360.22;;;27.17;43.85
56632;BME280;42503;39.928;-75.152;2022-09-09T07:37:24;101358.53;;;27.16;43.89
56632;BME280;42503;39.928;-75.152;2022-09-09T07:39:28;101363.34;;;27.16;43.78
56632;BME280;42503;39.928;-75.152;2022-09-09T07:41:36;101363.34;;;27.16;43.68
56632;BME280;42503;39.928;-75.152;2022-09-09T07:43:41;101358.66;;;27.11;43.54
56632;BME280;42503;39.928;-75.152;2022-09-09T07:45:42;101361.34;;;27.16;43.98
56632;BME280;42503;39.928;-75.152;2022-09-09T07:47:44;101349.16;;;27.07;43.65
56632;BME280;42503;39.928;-75.152;2022-09-09T07:49:46;101347.75;;;27.09;43.61
56632;BME280;42503;39.928;-75.152;2022-09-09T07:51:47;101335.22;;;27.02;43.87
56632;BME280;42503;39.928;-75.152;2022-09-09T07:54:04;101355.84;;;27.11;43.88
56632;BME280;42503;39.928;-75.152;2022-09-09T07:56:09;101366.97;;;27.16;43.56
56632;BME280;42503;39.928;-75.152;2022-09-09T07:58:10;101359.69;;;27.15;44.00
56632;BME280;42503;39.928;-75.152;2022-09-09T08:00:12;101348.31;;;27.06;43.55
56632;BME280;42503;39.928;-75.152;2022-09-09T08:02:18;101366.97;;;27.16;43.70
56632;BME280;42503;39.928;-75.152;2022-09-09T08:04:26;101370.59;;;27.17;43.56
56632;BME280;42503;39.928;-75.152;2022-09-09T08:06:32;101336.88;;;27.03;43.92
56632;BME280;42503;39.928;-75.152;2022-09-09T08:08:36;101354.91;;;27.16;43.64
56632;BME280;42503;39.928;-75.152;2022-09-09T08:10:39;101360.03;;;27.14;44.00
56632;BME280;42503;39.928;-75.152;2022-09-09T08:12:40;101365.00;;;27.17;43.61
56632;BME280;42503;39.928;-75.152;2022-09-09T08:14:47;101359.38;;;27.17;43.80
56632;BME280;42503;39.928;-75.152;2022-09-09T08:16:50;101360.13;;;27.08;43.93
56632;BME280;42503;39.928;-75.152;2022-09-09T08:18:52;101369.78;;;27.16;43.74
56632;BME280;42503;39.928;-75.152;2022-09-09T08:20:57;101368.94;;;27.16;43.82
56632;BME280;42503;39.928;-75.152;2022-09-09T08:22:58;101368.25;;;27.10;43.73
56632;BME280;42503;39.928;-75.152;2022-09-09T08:24:59;101378.22;;;27.16;43.98
56632;BME280;42503;39.928;-75.152;2022-09-09T08:27:01;101364.59;;;27.09;43.79
56632;BME280;42503;39.928;-75.152;2022-09-09T08:29:04;101372.59;;;27.16;43.96
56632;BME280;42503;39.928;-75.152;2022-09-09T08:31:08;101379.38;;;27.15;44.12
56632;BME280;42503;39.928;-75.152;2022-09-09T08:33:10;101379.38;;;27.15;43.72
56632;BME280;42503;39.928;-75.152;2022-09-09T08:35:11;101381.03;;;27.16;43.92
56632;BME280;42503;39.928;-75.152;2022-09-09T08:37:13;101366.00;;;27.07;43.95
56632;BME280;42503;39.928;-75.152;2022-09-09T08:39:17;101386.63;;;27.16;43.96
56632;BME280;42503;39.928;-75.152;2022-09-09T08:43:46;101392.91;;;27.13;43.91
56632;BME280;42503;39.928;-75.152;2022-09-09T08:50:34;101391.75;;;27.14;43.63
56632;BME280;42503;39.928;-75.152;2022-09-09T08:57:31;101402.38;;;27.17;44.06
56632;BME280;42503;39.928;-75.152;2022-09-09T08:59:33;101403.50;;;27.16;43.99
56632;BME280;42503;39.928;-75.152;2022-09-09T09:01:50;101399.34;;;27.14;43.97
56632;BME280;42503;39.928;-75.152;2022-09-09T09:04:29;101408.59;;;27.14;43.67
56632;BME280;42503;39.928;-75.152;2022-09-09T09:09:01;101394.56;;;27.14;43.72
56632;BME280;42503;39.928;-75.152;2022-09-09T09:11:06;101403.50;;;27.16;43.90
56632;BME280;42503;39.928;-75.152;2022-09-09T09:13:14;101405.78;;;27.14;43.82
56632;BME280;42503;39.928;-75.152;2022-09-09T09:15:23;101401.34;;;27.13;43.94
56632;BME280;42503;39.928;-75.152;2022-09-09T09:17:28;101406.63;;;27.15;43.86
56632;BME280;42503;39.928;-75.152;2022-09-09T09:19:35;101405.78;;;27.14;43.82
56632;BME280;42503;39.928;-75.152;2022-09-09T09:22:38;101405.25;;;27.12;44.12
56632;BME280;42503;39.928;-75.152;2022-09-09T09:26:56;101410.25;;;27.15;43.62
56632;BME280;42503;39.928;-75.152;2022-09-09T09:28:58;101413.06;;;27.15;43.97
56632;BME280;42503;39.928;-75.152;2022-09-09T09:31:10;101419.84;;;27.14;43.67
56632;BME280;42503;39.928;-75.152;2022-09-09T09:33:50;101417.03;;;27.14;44.07
56632;BME280;42503;39.928;-75.152;2022-09-09T09:35:44;101390.34;;;26.98;44.02
56632;BME280;42503;39.928;-75.152;2022-09-09T09:37:45;101392.66;;;26.96;43.93
56632;BME280;42503;39.928;-75.152;2022-09-09T09:39:50;101424.63;;;27.14;44.00
56632;BME280;42503;39.928;-75.152;2022-09-09T09:41:52;101425.47;;;27.14;43.69
56632;BME280;42503;39.928;-75.152;2022-09-09T09:43:55;101426.63;;;27.13;43.98
56632;BME280;42503;39.928;-75.152;2022-09-09T09:45:57;101425.78;;;27.13;43.83
56632;BME280;42503;39.928;-75.152;2022-09-09T09:48:06;101428.88;;;27.11;43.80
56632;BME280;42503;39.928;-75.152;2022-09-09T09:50:19;101431.19;;;27.09;44.10
56632;BME280;42503;39.928;-75.152;2022-09-09T09:52:23;101433.34;;;27.12;43.92
56632;BME280;42503;39.928;-75.152;2022-09-09T09:54:29;101435.34;;;27.11;43.76
56632;BME280;42503;39.928;-75.152;2022-09-09T09:56:31;101447.41;;;27.12;43.83
56632;BME280;42503;39.928;-75.152;2022-09-09T10:00:53;101449.69;;;27.10;44.06
56632;BME280;42503;39.928;-75.152;2022-09-09T10:02:59;101454.16;;;27.11;43.92
56632;BME280;42503;39.928;-75.152;2022-09-09T10:05:06;101430.00;;;26.96;43.86
56632;BME280;42503;39.928;-75.152;2022-09-09T10:07:13;101430.09;;;26.91;43.82
56632;BME280;42503;39.928;-75.152;2022-09-09T10:09:30;101447.06;;;27.00;43.97
56632;BME280;42503;39.928;-75.152;2022-09-09T10:11:37;101461.78;;;27.10;43.69
56632;BME280;42503;39.928;-75.152;2022-09-09T10:33:10;101487.59;;;27.13;43.83
56632;BME280;42503;39.928;-75.152;2022-09-09T10:37:34;101492.66;;;27.10;43.89
56632;BME280;42503;39.928;-75.152;2022-09-09T10:39:38;101497.47;;;27.10;44.20
56632;BME280;42503;39.928;-75.152;2022-09-09T10:56:35;101526.44;;;27.05;44.54
56632;BME280;42503;39.928;-75.152;2022-09-09T10:58:44;101531.22;;;27.05;44.04
56632;BME280;42503;39.928;-75.152;2022-09-09T11:00:53;101526.44;;;27.05;44.41
56632;BME280;42503;39.928;-75.152;2022-09-09T11:03:01;101525.63;;;27.05;44.27
56632;BME280;42503;39.928;-75.152;2022-09-09T11:09:50;101540.25;;;27.02;44.56
56632;BME280;42503;39.928;-75.152;2022-09-09T11:11:58;101520.34;;;26.84;44.38
56632;BME280;42503;39.928;-75.152;2022-09-09T11:14:19;101554.03;;;27.03;44.32
56632;BME280;42503;39.928;-75.152;2022-09-09T11:18:28;101560.75;;;27.02;44.34
56632;BME280;42503;39.928;-75.152;2022-09-09T11:20:30;101563.28;;;27.04;44.52
56632;BME280;42503;39.928;-75.152;2022-09-09T11:22:39;101563.28;;;27.04;44.34
56632;BME280;42503;39.928;-75.152;2022-09-09T11:24:45;101573.88;;;27.07;44.37
56632;BME280;42503;39.928;-75.152;2022-09-09T11:31:21;101580.06;;;27.09;44.15
56632;BME280;42503;39.928;-75.152;2022-09-09T11:40:33;101608.72;;;27.06;44.34
56632;BME280;42503;39.928;-75.152;2022-09-09T11:42:35;101606.25;;;27.04;44.51
56632;BME280;42503;39.928;-75.152;2022-09-09T11:44:37;101604.63;;;26.98;44.51
56632;BME280;42503;39.928;-75.152;2022-09-09T11:46:42;101617.34;;;26.96;44.49
56632;BME280;42503;39.928;-75.152;2022-09-09T11:49:01;101617.09;;;26.92;44.48
56632;BME280;42503;39.928;-75.152;2022-09-09T11:55:26;101609.50;;;26.93;44.69
56632;BME280;42503;39.928;-75.152;2022-09-09T11:57:35;101589.53;;;26.80;44.89
56632;BME280;42503;39.928;-75.152;2022-09-09T11:59:39;101596.16;;;26.84;44.58
56632;BME280;42503;39.928;-75.152;2022-09-09T12:02:01;101606.47;;;26.89;44.91
56632;BME280;42503;39.928;-75.152;2022-09-09T12:06:19;101617.72;;;26.89;44.94
56632;BME280;42503;39.928;-75.152;2022-09-09T12:08:27;101619.16;;;26.86;44.60
56632;BME280;42503;39.928;-75.152;2022-09-09T12:10:35;101613.88;;;26.85;44.86
56632;BME280;42503;39.928;-75.152;2022-09-09T12:12:38;101613.31;;;26.83;44.86
56632;BME280;42503;39.928;-75.152;2022-09-09T12:16:46;101601.19;;;26.69;44.89
56632;BME280;42503;39.928;-75.152;2022-09-09T12:18:48;101616.53;;;26.76;45.13
56632;BME280;42503;39.928;-75.152;2022-09-09T12:21:00;101614.84;;;26.75;44.95
56632;BME280;42503;39.928;-75.152;2022-09-09T12:23:22;101618.50;;;26.76;45.22
56632;BME280;42503;39.928;-75.152;2022-09-09T12:28:22;101630.03;;;26.74;45.13
56632;BME280;42503;39.928;-75.152;2022-09-09T12:30:49;101619.34;;;26.76;45.28
56632;BME280;42503;39.928;-75.152;2022-09-09T12:33:10;101609.47;;;26.60;45.22
56632;BME280;42503;39.928;-75.152;2022-09-09T12:35:21;101631.41;;;26.77;45.30
56632;BME280;42503;39.928;-75.152;2022-09-09T12:37:35;101635.34;;;26.76;45.21
56632;BME280;42503;39.928;-75.152;2022-09-09T12:39:42;101624.25;;;26.66;45.14
56632;BME280;42503;39.928;-75.152;2022-09-09T12:41:55;101644.63;;;26.76;45.20
56632;BME280;42503;39.928;-75.152;2022-09-09T12:44:05;101646.59;;;26.76;45.47
56632;BME280;42503;39.928;-75.152;2022-09-09T12:46:22;101645.22;;;26.73;45.29
56632;BME280;42503;39.928;-75.152;2022-09-09T12:48:41;101648.03;;;26.73;45.23
56632;BME280;42503;39.928;-75.152;2022-09-09T12:50:49;101658.09;;;26.74;45.46
56632;BME280;42503;39.928;-75.152;2022-09-09T12:52:56;101629.66;;;26.62;45.25